createdAt,value
2019-04-06T00:00:20.189Z,85.90
2019-04-06T00:02:49.885Z,86.40
2019-04-06T00:05:19.273Z,86.20
2019-04-06T00:07:48.736Z,86.10
2019-04-06T00:10:18.215Z,87.30
2019-04-06T00:12:47.729Z,87.00
2019-04-06T00:15:17.189Z,86.80
2019-04-06T00:17:46.600Z,86.50
2019-04-06T00:20:16.213Z,86.00
2019-04-06T00:22:45.667Z,85.40
2019-04-06T00:25:15.307Z,84.90
2019-04-06T00:27:44.764Z,84.80
2019-04-06T00:30:15.340Z,84.80
2019-04-06T00:32:46.378Z,85.50
2019-04-06T00:35:15.936Z,85.60
2019-04-06T00:37:45.437Z,85.10
2019-04-06T00:40:15.403Z,85.00
2019-04-06T00:42:44.868Z,85.10
2019-04-06T00:45:14.465Z,86.30
2019-04-06T00:47:44.130Z,86.00
2019-04-06T00:50:13.669Z,85.90
2019-04-06T00:52:43.198Z,86.50
2019-04-06T00:55:12.768Z,86.50
2019-04-06T00:57:42.792Z,86.90
2019-04-06T01:00:12.419Z,87.30
2019-04-06T01:02:42.260Z,87.40
2019-04-06T01:05:12.376Z,86.90
2019-04-06T01:07:41.905Z,87.40
2019-04-06T01:10:11.717Z,87.30
2019-04-06T01:12:41.191Z,87.90
2019-04-06T01:15:10.861Z,88.40
2019-04-06T01:17:40.347Z,88.30
2019-04-06T01:20:10.145Z,89.10
2019-04-06T01:22:39.764Z,88.60
2019-04-06T01:25:09.625Z,89.40
2019-04-06T01:27:39.164Z,89.40
2019-04-06T01:30:09.828Z,89.70
2019-04-06T01:32:39.340Z,90.00
2019-04-06T01:35:08.879Z,90.00
2019-04-06T01:37:38.339Z,90.20
2019-04-06T01:40:08.229Z,90.20
2019-04-06T01:42:37.645Z,90.80
2019-04-06T01:45:07.470Z,90.50
2019-04-06T01:47:37.009Z,90.50
2019-04-06T01:50:06.529Z,90.40
2019-04-06T01:52:36.061Z,90.40
2019-04-06T01:55:06.604Z,90.40
2019-04-06T01:57:36.478Z,90.50
2019-04-06T02:00:09.149Z,90.70
2019-04-06T02:02:40.310Z,90.80
2019-04-06T02:05:11.076Z,91.10
2019-04-06T02:07:40.493Z,91.00
2019-04-06T02:10:10.637Z,91.30
2019-04-06T02:12:40.028Z,91.40
2019-04-06T02:15:09.952Z,91.60
2019-04-06T02:17:39.377Z,91.50
2019-04-06T02:20:09.294Z,91.60
2019-04-06T02:22:38.733Z,91.70
2019-04-06T02:25:08.587Z,91.70
2019-04-06T02:27:38.124Z,91.70
2019-04-06T02:30:10.362Z,91.80
2019-04-06T02:32:41.802Z,91.80
2019-04-06T02:35:13.095Z,92.00
2019-04-06T02:37:44.347Z,91.80
2019-04-06T02:40:15.487Z,92.00
2019-04-06T02:42:46.737Z,91.90
2019-04-06T02:45:16.236Z,91.90
2019-04-06T02:47:45.690Z,91.90
2019-04-06T02:50:15.429Z,92.00
2019-04-06T02:52:44.862Z,92.10
2019-04-06T02:55:14.358Z,92.20
2019-04-06T02:57:44.072Z,92.20
2019-04-06T03:00:14.553Z,92.30
2019-04-06T03:02:44.107Z,92.40
2019-04-06T03:05:14.019Z,92.30
2019-04-06T03:07:43.693Z,92.50
2019-04-06T03:10:13.412Z,92.60
2019-04-06T03:12:43.919Z,92.60
2019-04-06T03:15:13.439Z,92.60
2019-04-06T03:17:44.011Z,92.70
2019-04-06T03:20:13.729Z,92.90
2019-04-06T03:22:43.206Z,93.00
2019-04-06T03:25:13.042Z,93.10
2019-04-06T03:27:42.628Z,93.10
2019-04-06T03:30:12.467Z,93.10
2019-04-06T03:32:42.423Z,93.10
2019-04-06T03:35:12.201Z,93.20
2019-04-06T03:37:42.728Z,93.20
2019-04-06T03:40:12.381Z,93.10
2019-04-06T03:42:43.510Z,93.30
2019-04-06T03:45:13.916Z,93.40
2019-04-06T03:47:43.399Z,93.20
2019-04-06T03:50:13.123Z,93.30
2019-04-06T03:52:42.529Z,93.20
2019-04-06T03:55:12.155Z,93.30
2019-04-06T03:57:41.823Z,93.30
2019-04-06T04:00:11.842Z,93.40
2019-04-06T04:02:41.299Z,93.40
2019-04-06T04:05:11.751Z,93.50
2019-04-06T04:07:41.440Z,93.60
2019-04-06T04:10:14.139Z,93.80
2019-04-06T04:12:43.670Z,93.70
2019-04-06T04:15:13.453Z,93.70
2019-04-06T04:17:43.251Z,94.10
2019-04-06T04:20:12.988Z,93.60
2019-04-06T04:22:42.584Z,93.70
2019-04-06T04:25:12.052Z,93.70
2019-04-06T04:27:43.869Z,93.70
2019-04-06T04:30:15.221Z,93.70
2019-04-06T04:32:44.818Z,93.70
2019-04-06T04:35:14.501Z,93.70
2019-04-06T04:37:44.009Z,93.70
2019-04-06T04:40:13.818Z,93.60
2019-04-06T04:42:44.456Z,93.60
2019-04-06T04:45:15.769Z,94.00
2019-04-06T04:47:46.495Z,93.80
2019-04-06T04:50:16.136Z,93.60
2019-04-06T04:52:45.566Z,93.60
2019-04-06T04:55:16.085Z,93.40
2019-04-06T04:57:45.783Z,93.00
2019-04-06T05:00:16.661Z,93.20
2019-04-06T05:02:46.819Z,93.10
2019-04-06T05:05:16.392Z,92.90
2019-04-06T05:07:46.070Z,92.50
2019-04-06T05:10:16.075Z,92.50
2019-04-06T05:12:45.675Z,92.10
2019-04-06T05:15:18.186Z,92.10
2019-04-06T05:17:47.765Z,92.00
2019-04-06T05:20:17.198Z,91.80
2019-04-06T05:22:46.616Z,91.70
2019-04-06T05:25:16.116Z,91.60
2019-04-06T05:27:51.789Z,91.30
2019-04-06T05:30:17.112Z,91.50
2019-04-06T05:32:46.732Z,91.10
2019-04-06T05:35:16.341Z,90.60
2019-04-06T05:37:45.840Z,90.90
2019-04-06T05:40:15.414Z,91.00
2019-04-06T05:42:44.900Z,90.60
2019-04-06T05:45:14.414Z,90.50
2019-04-06T05:47:43.817Z,90.20
2019-04-06T05:50:13.765Z,90.00
2019-04-06T05:52:43.232Z,90.00
2019-04-06T05:55:12.894Z,89.50
2019-04-06T05:57:42.408Z,90.00
2019-04-06T06:00:12.513Z,90.00
2019-04-06T06:02:42.020Z,89.50
2019-04-06T06:05:11.932Z,89.20
2019-04-06T06:07:41.513Z,88.90
2019-04-06T06:10:11.326Z,88.80
2019-04-06T06:12:40.777Z,89.30
2019-04-06T06:15:10.461Z,89.50
2019-04-06T06:17:40.002Z,88.60
2019-04-06T06:20:09.703Z,88.60
2019-04-06T06:22:39.351Z,88.70
2019-04-06T06:25:08.881Z,87.20
2019-04-06T06:27:38.411Z,87.00
2019-04-06T06:30:09.582Z,87.30
2019-04-06T06:32:39.162Z,87.10
2019-04-06T06:35:08.784Z,87.80
2019-04-06T06:37:38.224Z,88.80
2019-04-06T06:40:08.891Z,86.00
2019-04-06T06:42:38.416Z,85.50
2019-04-06T06:45:08.226Z,86.50
2019-04-06T06:47:37.604Z,86.40
2019-04-06T06:50:07.792Z,85.80
2019-04-06T06:52:37.282Z,85.10
2019-04-06T06:55:07.663Z,85.80
2019-04-06T06:57:37.158Z,84.40
2019-04-06T07:00:08.009Z,85.30
2019-04-06T07:02:37.392Z,85.60
2019-04-06T07:05:06.881Z,85.00
2019-04-06T07:07:36.406Z,85.00
2019-04-06T07:10:07.626Z,84.20
2019-04-06T07:12:37.105Z,83.20
2019-04-06T07:15:07.312Z,84.00
2019-04-06T07:17:36.782Z,84.20
2019-04-06T07:20:07.095Z,84.40
2019-04-06T07:22:36.763Z,82.30
2019-04-06T07:25:06.418Z,82.50
2019-04-06T07:27:37.014Z,84.90
2019-04-06T07:30:07.794Z,82.20
2019-04-06T07:32:37.320Z,82.10
2019-04-06T07:35:07.119Z,81.50
2019-04-06T07:37:36.583Z,81.90
2019-04-06T07:40:07.640Z,81.90
2019-04-06T07:42:37.093Z,83.00
2019-04-06T07:45:08.259Z,81.40
2019-04-06T07:47:37.655Z,81.20
2019-04-06T07:50:09.061Z,82.00
2019-04-06T07:52:38.470Z,81.20
2019-04-06T07:55:08.178Z,81.40
2019-04-06T07:57:37.527Z,79.40
2019-04-06T08:00:07.871Z,80.70
2019-04-06T08:02:37.231Z,80.20
2019-04-06T08:05:06.928Z,78.30
2019-04-06T08:07:36.587Z,80.30
2019-04-06T08:10:06.406Z,80.10
2019-04-06T08:12:35.801Z,77.30
2019-04-06T08:15:07.533Z,77.00
2019-04-06T08:17:36.982Z,78.90
2019-04-06T08:20:07.707Z,77.30
2019-04-06T08:22:37.067Z,76.50
2019-04-06T08:25:07.131Z,76.20
2019-04-06T08:27:36.714Z,77.30
2019-04-06T08:30:09.155Z,76.10
2019-04-06T08:32:38.525Z,76.80
2019-04-06T08:35:08.434Z,75.90
2019-04-06T08:37:38.946Z,75.00
2019-04-06T08:40:09.407Z,75.00
2019-04-06T08:42:38.889Z,73.20
2019-04-06T08:45:08.599Z,71.70
2019-04-06T08:47:38.941Z,73.80
2019-04-06T08:50:08.663Z,71.10
2019-04-06T08:52:38.018Z,72.40
2019-04-06T08:55:07.853Z,72.90
2019-04-06T08:57:37.340Z,70.60
2019-04-06T09:00:08.367Z,74.30
2019-04-06T09:02:38.985Z,73.00
2019-04-06T09:05:08.981Z,70.50
2019-04-06T09:07:40.598Z,72.60
2019-04-06T09:10:09.987Z,72.20
2019-04-06T09:12:39.582Z,71.40
2019-04-06T09:15:10.049Z,70.30
2019-04-06T09:17:40.591Z,72.70
2019-04-06T09:20:10.461Z,71.20
2019-04-06T09:22:40.144Z,69.70
2019-04-06T09:25:10.201Z,71.10
2019-04-06T09:27:40.929Z,69.60
2019-04-06T09:30:11.785Z,71.50
2019-04-06T09:32:41.448Z,73.70
2019-04-06T09:35:11.047Z,72.30
2019-04-06T09:37:40.522Z,70.10
2019-04-06T09:40:10.520Z,70.50
2019-04-06T09:42:40.069Z,70.10
2019-04-06T09:45:11.731Z,73.40
2019-04-06T09:47:42.786Z,67.50
2019-04-06T09:50:14.027Z,70.00
2019-04-06T09:52:45.352Z,67.80
2019-04-06T09:55:16.635Z,66.20
2019-04-06T09:57:47.851Z,68.40
2019-04-06T10:00:19.848Z,65.90
2019-04-06T10:02:51.097Z,68.40
2019-04-06T10:05:22.483Z,65.80
2019-04-06T10:07:53.609Z,66.40
2019-04-06T10:10:22.976Z,65.00
2019-04-06T10:12:52.248Z,65.00
2019-04-06T10:15:23.349Z,62.70
2019-04-06T10:17:54.808Z,64.90
2019-04-06T10:20:25.902Z,63.00
2019-04-06T10:22:57.343Z,63.10
2019-04-06T10:25:28.808Z,62.00
2019-04-06T10:27:59.925Z,63.60
2019-04-06T10:30:31.039Z,64.50
2019-04-06T10:33:02.088Z,61.00
2019-04-06T10:35:33.251Z,62.90
2019-04-06T10:38:04.528Z,60.60
2019-04-06T10:40:35.701Z,59.50
2019-04-06T10:43:06.916Z,60.30
2019-04-06T10:45:38.001Z,60.70
2019-04-06T10:48:09.133Z,59.30
2019-04-06T10:50:40.220Z,58.70
2019-04-06T10:53:11.378Z,58.50
2019-04-06T10:55:42.544Z,60.00
2019-04-06T10:58:13.791Z,57.00
2019-04-06T11:00:46.109Z,60.10
2019-04-06T11:03:17.410Z,60.80
2019-04-06T11:05:48.417Z,58.10
2019-04-06T11:08:19.407Z,57.80
2019-04-06T11:10:50.453Z,59.60
2019-04-06T11:13:21.690Z,59.10
2019-04-06T11:15:52.917Z,57.20
2019-04-06T11:18:24.035Z,59.90
2019-04-06T11:20:55.058Z,60.10
2019-04-06T11:23:26.271Z,59.60
2019-04-06T11:25:57.387Z,57.80
2019-04-06T11:28:28.402Z,56.40
2019-04-06T11:30:59.489Z,58.40
2019-04-06T11:33:30.490Z,58.00
2019-04-06T11:36:01.485Z,59.50
2019-04-06T11:38:32.507Z,60.50
2019-04-06T11:41:03.499Z,59.30
2019-04-06T11:43:34.516Z,58.40
2019-04-06T11:46:20.878Z,56.50
2019-04-06T11:48:52.904Z,57.30
2019-04-06T11:51:24.962Z,57.60
2019-04-06T11:53:55.986Z,58.00
2019-04-06T11:56:27.052Z,56.70
2019-04-06T11:58:58.048Z,59.60
2019-04-06T12:01:29.051Z,56.00
2019-04-06T12:04:00.198Z,55.50
2019-04-06T12:06:31.444Z,54.50
2019-04-06T12:09:02.813Z,54.80
2019-04-06T12:11:35.552Z,52.90
2019-04-06T12:14:06.841Z,51.50
2019-04-06T12:16:37.950Z,53.40
2019-04-06T12:19:09.008Z,52.80
2019-04-06T12:21:40.161Z,51.30
2019-04-06T12:24:11.382Z,51.60
2019-04-06T12:26:43.003Z,49.90
2019-04-06T12:29:16.222Z,51.20
2019-04-06T12:31:47.366Z,50.60
2019-04-06T12:34:18.392Z,50.70
2019-04-06T12:36:49.758Z,51.30
2019-04-06T12:39:20.884Z,50.70
2019-04-06T12:41:51.914Z,52.00
2019-04-06T12:44:23.120Z,50.70
2019-04-06T12:46:54.212Z,49.80
2019-04-06T12:49:25.543Z,49.80
2019-04-06T12:51:56.707Z,48.30
2019-04-06T12:54:28.064Z,49.20
2019-04-06T12:56:59.194Z,50.40
2019-04-06T12:59:30.244Z,50.10
2019-04-06T13:02:01.468Z,50.40
2019-04-06T13:04:32.550Z,51.30
2019-04-06T13:07:03.221Z,48.40
2019-04-06T13:09:34.250Z,49.70
2019-04-06T13:12:05.326Z,49.10
2019-04-06T13:14:36.513Z,48.10
2019-04-06T13:17:07.591Z,48.70
2019-04-06T13:19:38.640Z,47.50
2019-04-06T13:22:09.829Z,50.40
2019-04-06T13:24:40.925Z,48.00
2019-04-06T13:27:12.057Z,48.50
2019-04-06T13:29:43.218Z,50.30
2019-04-06T13:32:14.389Z,49.80
2019-04-06T13:34:45.586Z,48.80
2019-04-06T13:37:16.700Z,47.00
2019-04-06T13:39:47.790Z,47.40
2019-04-06T13:42:19.015Z,47.90
2019-04-06T13:44:50.120Z,49.20
2019-04-06T13:47:20.363Z,46.50
2019-04-06T13:49:51.499Z,50.50
2019-04-06T13:52:20.722Z,50.10
2019-04-06T13:54:52.155Z,48.10
2019-04-06T13:57:23.320Z,49.00
2019-04-06T13:59:54.508Z,49.30
2019-04-06T14:02:26.985Z,51.10
2019-04-06T14:04:58.533Z,50.90
2019-04-06T14:07:30.741Z,50.90
2019-04-06T14:10:02.186Z,49.60
2019-04-06T14:12:33.441Z,49.90
2019-04-06T14:15:04.686Z,51.20
2019-04-06T14:17:35.750Z,50.90
2019-04-06T14:20:08.668Z,50.90
2019-04-06T14:22:40.011Z,51.60
2019-04-06T14:25:11.622Z,50.90
2019-04-06T14:27:42.817Z,49.70
2019-04-06T14:30:14.049Z,52.30
2019-04-06T14:32:45.146Z,53.30
2019-04-06T14:35:17.271Z,52.00
2019-04-06T14:37:48.402Z,53.10
2019-04-06T14:40:19.506Z,51.60
2019-04-06T14:42:50.698Z,54.00
2019-04-06T14:45:21.831Z,55.00
2019-04-06T14:47:53.079Z,55.20
2019-04-06T14:50:24.251Z,55.50
2019-04-06T14:52:55.341Z,57.10
2019-04-06T14:55:27.011Z,56.40
2019-04-06T14:57:58.199Z,55.50
2019-04-06T15:00:29.289Z,56.50
2019-04-06T15:03:00.407Z,56.50
2019-04-06T15:05:31.862Z,56.70
2019-04-06T15:08:02.970Z,58.10
2019-04-06T15:10:34.112Z,60.00
2019-04-06T15:13:05.127Z,59.60
2019-04-06T15:15:36.255Z,59.90
2019-04-06T15:18:07.346Z,60.00
2019-04-06T15:20:38.550Z,59.90
2019-04-06T15:23:09.625Z,60.30
2019-04-06T15:25:41.179Z,60.90
2019-04-06T15:28:12.325Z,60.60
2019-04-06T15:30:43.656Z,58.40
2019-04-06T15:33:14.769Z,59.30
2019-04-06T15:35:46.234Z,58.50
2019-04-06T15:38:17.463Z,61.10
2019-04-06T15:40:48.614Z,61.90
2019-04-06T15:43:19.819Z,60.60
2019-04-06T15:45:50.971Z,61.60
2019-04-06T15:48:35.792Z,60.30
2019-04-06T15:50:53.487Z,61.70
2019-04-06T15:53:24.793Z,62.10
2019-04-06T15:55:55.925Z,62.30
2019-04-06T15:58:27.058Z,62.40
2019-04-06T16:00:58.542Z,61.90
2019-04-06T16:03:29.674Z,62.70
2019-04-06T16:06:00.714Z,61.60
2019-04-06T16:08:32.158Z,61.30
2019-04-06T16:11:03.255Z,61.50
2019-04-06T16:13:34.356Z,62.00
2019-04-06T16:16:05.499Z,62.80
2019-04-06T16:18:35.195Z,62.10
2019-04-06T16:21:06.421Z,61.20
2019-04-06T16:23:37.515Z,62.00
2019-04-06T16:26:08.542Z,61.70
2019-04-06T16:28:40.216Z,62.20
2019-04-06T16:31:09.448Z,62.50
2019-04-06T16:33:40.470Z,63.40
2019-04-06T16:36:11.871Z,63.40
2019-04-06T16:38:43.380Z,64.10
2019-04-06T16:41:14.424Z,64.80
2019-04-06T16:43:45.818Z,65.10
2019-04-06T16:46:17.338Z,65.40
2019-04-06T16:48:48.473Z,66.80
2019-04-06T16:51:19.794Z,67.30
2019-04-06T16:53:50.906Z,68.50
2019-04-06T16:56:23.045Z,69.20
2019-04-06T16:58:54.107Z,69.40
2019-04-06T17:01:25.100Z,69.10
2019-04-06T17:03:56.162Z,69.40
2019-04-06T17:06:27.209Z,69.90
2019-04-06T17:08:59.349Z,70.40
2019-04-06T17:11:30.551Z,70.40
2019-04-06T17:14:01.637Z,71.10
2019-04-06T17:16:32.866Z,71.40
2019-04-06T17:19:03.951Z,71.60
2019-04-06T17:21:34.971Z,72.30
2019-04-06T17:24:06.616Z,72.50
2019-04-06T17:26:37.708Z,72.90
2019-04-06T17:29:06.985Z,73.80
2019-04-06T17:31:36.610Z,74.40
2019-04-06T17:34:07.901Z,74.50
2019-04-06T17:36:39.029Z,74.70
2019-04-06T17:39:10.118Z,75.00
2019-04-06T17:41:39.687Z,75.10
2019-04-06T17:44:10.879Z,75.20
2019-04-06T17:46:42.396Z,75.80
2019-04-06T17:49:13.457Z,76.00
2019-04-06T17:51:44.499Z,75.80
2019-04-06T17:54:14.438Z,75.90
2019-04-06T17:56:45.704Z,76.00
2019-04-06T17:59:17.805Z,76.00
2019-04-06T18:01:48.979Z,76.00
2019-04-06T18:04:20.186Z,76.30
2019-04-06T18:06:51.269Z,76.20
2019-04-06T18:09:22.315Z,76.20
2019-04-06T18:11:53.305Z,76.50
2019-04-06T18:14:22.779Z,76.50
2019-04-06T18:16:52.738Z,77.00
2019-04-06T18:19:22.298Z,76.30
2019-04-06T18:21:51.712Z,76.10
2019-04-06T18:24:21.414Z,76.10
2019-04-06T18:26:51.247Z,75.80
2019-04-06T18:29:20.779Z,76.20
2019-04-06T18:31:51.855Z,75.70
2019-04-06T18:34:21.666Z,75.60
2019-04-06T18:36:52.825Z,75.40
2019-04-06T18:39:24.232Z,75.40
2019-04-06T18:41:53.761Z,75.60
2019-04-06T18:44:23.296Z,75.10
2019-04-06T18:46:52.940Z,75.50
2019-04-06T18:49:22.785Z,75.50
2019-04-06T18:51:52.401Z,74.90
2019-04-06T18:54:22.208Z,75.10
2019-04-06T18:56:51.755Z,75.30
2019-04-06T18:59:21.627Z,74.90
2019-04-06T19:01:51.240Z,75.40
2019-04-06T19:04:20.750Z,74.90
2019-04-06T19:06:51.922Z,74.40
2019-04-06T19:09:24.502Z,75.20
2019-04-06T19:11:55.537Z,75.30
2019-04-06T19:14:23.947Z,74.40
2019-04-06T19:16:53.428Z,77.00
2019-04-06T19:19:23.239Z,77.00
2019-04-06T19:21:52.857Z,78.70
2019-04-06T19:24:24.891Z,77.90
2019-04-06T19:26:55.456Z,76.20
2019-04-06T19:29:25.044Z,75.10
2019-04-06T19:31:54.606Z,73.90
2019-04-06T19:34:26.013Z,73.10
2019-04-06T19:36:55.688Z,73.00
2019-04-06T19:39:25.172Z,73.20
2019-04-06T19:41:56.405Z,73.00
2019-04-06T19:44:26.018Z,72.80
2019-04-06T19:46:55.892Z,74.20
2019-04-06T19:49:25.572Z,74.00
2019-04-06T19:51:57.058Z,74.00
2019-04-06T19:54:26.866Z,73.60
2019-04-06T19:56:56.888Z,76.10
2019-04-06T19:59:26.599Z,78.00
2019-04-06T20:01:56.046Z,78.30
2019-04-06T20:04:25.425Z,79.50
2019-04-06T20:06:54.828Z,78.30
2019-04-06T20:09:24.332Z,79.50
2019-04-06T20:12:04.139Z,79.20
2019-04-06T20:14:25.287Z,80.30
2019-04-06T20:16:54.850Z,80.10
2019-04-06T20:19:24.360Z,80.00
2019-04-06T20:21:54.839Z,79.40
2019-04-06T20:24:24.285Z,78.40
2019-04-06T20:26:53.664Z,78.80
2019-04-06T20:29:23.700Z,81.20
2019-04-06T20:31:53.214Z,80.40
2019-04-06T20:34:23.058Z,81.90
2019-04-06T20:36:52.523Z,81.60
2019-04-06T20:39:22.065Z,82.20
2019-04-06T20:41:51.820Z,82.40
2019-04-06T20:44:21.463Z,83.60
2019-04-06T20:46:50.918Z,83.80
2019-04-06T20:49:20.725Z,83.50
2019-04-06T20:51:50.292Z,83.20
2019-04-06T20:54:19.768Z,84.00
2019-04-06T20:56:56.411Z,83.50
2019-04-06T20:59:20.267Z,82.80
2019-04-06T21:01:49.651Z,84.00
2019-04-06T21:04:19.041Z,83.20
2019-04-06T21:06:48.631Z,83.30
2019-04-06T21:09:18.131Z,82.70
2019-04-06T21:11:48.006Z,82.00
2019-04-06T21:14:17.864Z,82.40
2019-04-06T21:16:47.931Z,84.90
2019-04-06T21:19:18.050Z,82.70
2019-04-06T21:21:50.474Z,83.00
2019-04-06T21:24:20.681Z,83.10
2019-04-06T21:26:50.304Z,83.00
2019-04-06T21:29:20.045Z,81.50
2019-04-06T21:31:49.816Z,83.70
2019-04-06T21:34:19.475Z,83.60
2019-04-06T21:36:49.567Z,83.50
2019-04-06T21:39:19.149Z,83.00
2019-04-06T21:41:48.729Z,81.20
2019-04-06T21:44:18.725Z,80.40
2019-04-06T21:46:51.325Z,78.80
2019-04-06T21:49:21.142Z,78.20
2019-04-06T21:51:51.556Z,77.70
2019-04-06T21:54:21.174Z,77.90
2019-04-06T21:56:50.628Z,77.10
2019-04-06T21:59:20.113Z,76.90
2019-04-06T22:01:50.308Z,77.00
2019-04-06T22:04:25.958Z,77.90
2019-04-06T22:06:51.633Z,77.90
2019-04-06T22:09:21.970Z,78.40
2019-04-06T22:11:51.651Z,77.60
2019-04-06T22:14:21.225Z,77.00
2019-04-06T22:16:50.747Z,79.70
2019-04-06T22:19:20.254Z,79.00
2019-04-06T22:21:49.735Z,78.20
2019-04-06T22:24:19.176Z,78.80
2019-04-06T22:26:48.650Z,77.30
2019-04-06T22:29:18.501Z,77.10
2019-04-06T22:31:48.123Z,75.40
2019-04-06T22:34:17.690Z,75.80
2019-04-06T22:36:47.825Z,76.20
2019-04-06T22:39:17.493Z,76.40
2019-04-06T22:41:47.004Z,77.20
2019-04-06T22:44:16.438Z,74.90
2019-04-06T22:46:46.361Z,74.70
2019-04-06T22:49:29.769Z,72.90
2019-04-06T22:51:59.461Z,73.60
2019-04-06T22:54:29.024Z,75.10
2019-04-06T22:56:58.825Z,75.50
2019-04-06T22:59:28.888Z,75.70
2019-04-06T23:01:58.634Z,76.00
2019-04-06T23:04:29.911Z,77.10
2019-04-06T23:07:01.007Z,77.60
2019-04-06T23:09:30.865Z,78.20
2019-04-06T23:12:00.755Z,77.00
2019-04-06T23:14:31.743Z,77.40
2019-04-06T23:17:02.098Z,77.40
2019-04-06T23:19:33.698Z,76.60
2019-04-06T23:22:03.625Z,77.70
2019-04-06T23:24:33.279Z,79.50
2019-04-06T23:27:02.768Z,79.80
2019-04-06T23:29:32.524Z,77.40
2019-04-06T23:32:02.644Z,77.00
2019-04-06T23:34:32.155Z,76.90
2019-04-06T23:37:01.662Z,78.60
2019-04-06T23:39:31.187Z,78.80
2019-04-06T23:42:00.707Z,79.50
2019-04-06T23:44:30.550Z,81.50
2019-04-06T23:47:00.465Z,82.40
2019-04-06T23:49:30.158Z,83.30
2019-04-06T23:51:59.613Z,84.90
2019-04-06T23:54:29.145Z,84.50
2019-04-06T23:56:59.176Z,84.20
2019-04-06T23:59:28.887Z,84.90
